createdAt,value
2018-04-14T00:01:36.637Z,32.67
2018-04-14T00:04:02.630Z,33.03
2018-04-14T00:06:28.598Z,34.63
2018-04-14T00:08:55.297Z,34.77
2018-04-14T00:11:21.276Z,35.07
2018-04-14T00:13:47.213Z,33.57
2018-04-14T00:16:13.171Z,35.07
2018-04-14T00:18:39.134Z,34.63
2018-04-14T00:21:05.159Z,33.67
2018-04-14T00:23:31.166Z,35.07
2018-04-14T00:25:57.856Z,34.47
2018-04-14T00:28:23.832Z,35.13
2018-04-14T00:30:49.789Z,34.73
2018-04-14T00:33:16.493Z,34.77
2018-04-14T00:35:42.442Z,33.97
2018-04-14T00:38:08.393Z,32.47
2018-04-14T00:40:34.736Z,30.23
2018-04-14T00:43:00.705Z,29.87
2018-04-14T00:45:26.662Z,26.47
2018-04-14T00:47:52.922Z,29.10
2018-04-14T00:50:18.878Z,27.53
2018-04-14T00:52:44.822Z,25.70
2018-04-14T00:55:11.546Z,26.83
2018-04-14T00:57:37.547Z,27.47
2018-04-14T01:00:03.580Z,27.23
2018-04-14T01:02:29.571Z,26.80
2018-04-14T01:04:55.539Z,25.53
2018-04-14T01:07:21.502Z,26.83
2018-04-14T01:09:47.464Z,28.37
2018-04-14T01:12:13.421Z,27.43
2018-04-14T01:14:39.408Z,28.37
2018-04-14T01:17:05.409Z,29.10
2018-04-14T01:19:32.176Z,28.07
2018-04-14T01:21:58.187Z,29.27
2018-04-14T01:24:24.150Z,29.03
2018-04-14T01:26:50.105Z,25.70
2018-04-14T01:29:16.079Z,29.83
2018-04-14T01:31:42.025Z,29.13
2018-04-14T01:34:07.990Z,29.87
2018-04-14T01:36:34.042Z,27.73
2018-04-14T01:39:00.101Z,26.10
2018-04-14T01:41:26.090Z,26.67
2018-04-14T01:43:52.790Z,25.70
2018-04-14T01:46:18.745Z,27.87
2018-04-14T01:48:44.702Z,27.13
2018-04-14T01:51:11.405Z,29.10
2018-04-14T01:53:37.355Z,29.43
2018-04-14T01:56:04.129Z,30.63
2018-04-14T01:58:30.094Z,31.37
2018-04-14T02:00:56.060Z,29.23
2018-04-14T02:03:22.022Z,29.40
2018-04-14T02:05:47.985Z,30.80
2018-04-14T02:08:15.214Z,30.70
2018-04-14T02:10:41.166Z,30.63
2018-04-14T02:13:07.162Z,31.13
2018-04-14T02:15:33.183Z,31.50
2018-04-14T02:17:59.137Z,30.33
2018-04-14T02:20:25.103Z,28.50
2018-04-14T02:22:51.059Z,30.20
2018-04-14T02:25:18.190Z,27.73
2018-04-14T02:27:44.147Z,29.03
2018-04-14T02:30:10.116Z,28.93
2018-04-14T02:32:36.111Z,28.63
2018-04-14T02:35:02.099Z,28.60
2018-04-14T02:37:28.119Z,31.00
2018-04-14T02:39:54.102Z,29.43
2018-04-14T02:42:20.084Z,28.47
2018-04-14T02:44:46.788Z,28.13
2018-04-14T02:47:12.763Z,30.27
2018-04-14T02:49:38.760Z,30.60
2018-04-14T02:52:04.726Z,30.10
2018-04-14T02:54:31.627Z,29.60
2018-04-14T02:56:57.591Z,29.93
2018-04-14T02:59:23.550Z,30.20
2018-04-14T03:01:49.510Z,30.50
2018-04-14T03:04:15.474Z,30.47
2018-04-14T03:06:41.435Z,29.67
2018-04-14T03:09:07.464Z,33.00
2018-04-14T03:11:33.848Z,30.27
2018-04-14T03:14:00.556Z,31.63
2018-04-14T03:16:26.523Z,31.90
2018-04-14T03:18:52.534Z,31.27
2018-04-14T03:21:18.500Z,31.47
2018-04-14T03:23:45.195Z,30.47
2018-04-14T03:26:11.200Z,31.20
2018-04-14T03:28:37.902Z,30.40
2018-04-14T03:31:03.908Z,30.83
2018-04-14T03:33:30.295Z,29.43
2018-04-14T03:35:56.647Z,29.40
2018-04-14T03:38:22.815Z,28.90
2018-04-14T03:40:49.498Z,28.23
2018-04-14T03:43:15.470Z,30.77
2018-04-14T03:45:41.442Z,29.40
2018-04-14T03:48:07.455Z,28.80
2018-04-14T03:50:33.447Z,27.57
2018-04-14T03:52:59.419Z,30.07
2018-04-14T03:55:25.380Z,28.10
2018-04-14T03:57:52.090Z,25.90
2018-04-14T04:00:18.047Z,26.40
2018-04-14T04:02:44.014Z,26.83
2018-04-14T04:05:09.966Z,27.53
2018-04-14T04:07:35.943Z,27.03
2018-04-14T04:10:01.937Z,29.17
2018-04-14T04:12:27.911Z,28.60
2018-04-14T04:14:53.873Z,26.50
2018-04-14T04:17:20.582Z,26.17
2018-04-14T04:19:59.130Z,26.13
2018-04-14T04:22:37.478Z,28.47
2018-04-14T04:25:25.076Z,28.60
2018-04-14T04:27:51.027Z,26.87
2018-04-14T04:30:17.001Z,30.30
2018-04-14T04:32:43.715Z,25.83
2018-04-14T04:35:09.689Z,27.70
2018-04-14T04:37:36.427Z,25.90
2018-04-14T04:40:03.198Z,22.87
2018-04-14T04:42:29.224Z,24.43
2018-04-14T04:44:55.911Z,23.60
2018-04-14T04:47:21.887Z,26.00
2018-04-14T04:49:47.830Z,25.67
2018-04-14T04:52:13.792Z,24.87
2018-04-14T04:54:40.499Z,26.53
2018-04-14T04:57:06.474Z,24.80
2018-04-14T04:59:33.616Z,24.00
2018-04-14T05:01:59.583Z,25.17
2018-04-14T05:04:26.286Z,22.83
2018-04-14T05:06:52.263Z,23.47
2018-04-14T05:09:18.979Z,24.07
2018-04-14T05:11:45.115Z,23.47
2018-04-14T05:14:11.088Z,23.17
2018-04-14T05:16:37.940Z,23.10
2018-04-14T05:19:04.726Z,22.03
2018-04-14T05:21:30.699Z,23.87
2018-04-14T05:23:56.675Z,23.47
2018-04-14T05:26:23.379Z,22.83
2018-04-14T05:28:49.342Z,23.43
2018-04-14T05:31:15.304Z,23.43
2018-04-14T05:33:41.310Z,23.23
2018-04-14T05:36:07.294Z,20.87
2018-04-14T05:38:33.308Z,22.73
2018-04-14T05:40:59.302Z,23.00
2018-04-14T05:43:25.266Z,22.93
2018-04-14T05:45:51.954Z,21.23
2018-04-14T05:48:17.915Z,21.17
2018-04-14T05:50:43.866Z,21.87
2018-04-14T05:53:09.995Z,21.17
2018-04-14T05:55:35.990Z,20.73
2018-04-14T05:58:02.004Z,21.47
2018-04-14T06:00:28.721Z,21.30
2018-04-14T06:02:54.692Z,21.57
2018-04-14T06:05:21.423Z,22.00
2018-04-14T06:07:47.374Z,20.23
2018-04-14T06:10:14.070Z,19.60
2018-04-14T06:12:40.054Z,19.10
2018-04-14T06:15:06.071Z,17.93
2018-04-14T06:17:32.089Z,18.07
2018-04-14T06:19:58.063Z,17.97
2018-04-14T06:22:25.088Z,17.30
2018-04-14T06:24:51.055Z,16.67
2018-04-14T06:27:17.758Z,16.60
2018-04-14T06:29:43.715Z,17.37
2018-04-14T06:32:09.680Z,15.63
2018-04-14T06:34:36.483Z,15.13
2018-04-14T06:37:02.473Z,16.10
2018-04-14T06:39:29.476Z,16.13
2018-04-14T06:41:55.447Z,15.37
2018-04-14T06:44:21.397Z,14.93
2018-04-14T06:46:48.103Z,14.83
2018-04-14T06:49:14.082Z,13.53
2018-04-14T06:51:40.786Z,14.07
2018-04-14T06:54:06.802Z,14.13
2018-04-14T06:56:32.799Z,12.90
2018-04-14T06:58:58.756Z,11.27
2018-04-14T07:01:25.483Z,12.90
2018-04-14T07:03:51.436Z,13.03
2018-04-14T07:06:18.139Z,13.83
2018-04-14T07:08:44.083Z,14.37
2018-04-14T07:11:10.060Z,12.93
2018-04-14T07:13:36.862Z,13.33
2018-04-14T07:16:02.881Z,14.93
2018-04-14T07:18:28.843Z,14.93
2018-04-14T07:20:55.099Z,13.70
2018-04-14T07:23:21.051Z,12.73
2018-04-14T07:25:47.754Z,13.63
2018-04-14T07:28:13.718Z,13.47
2018-04-14T07:30:39.679Z,12.53
2018-04-14T07:33:05.707Z,13.07
2018-04-14T07:35:31.740Z,14.00
2018-04-14T07:37:57.703Z,12.80
2018-04-14T07:40:24.422Z,14.33
2018-04-14T07:42:50.378Z,12.30
2018-04-14T07:45:17.120Z,10.57
2018-04-14T07:47:43.082Z,11.83
2018-04-14T07:50:09.043Z,11.20
2018-04-14T07:52:35.052Z,10.70
2018-04-14T07:55:01.018Z,11.47
2018-04-14T07:57:26.989Z,9.23
2018-04-14T07:59:53.696Z,8.97
2018-04-14T08:02:19.982Z,8.80
2018-04-14T08:04:45.972Z,9.13
2018-04-14T08:07:12.664Z,8.40
2018-04-14T08:09:38.675Z,7.97
2018-04-14T08:12:05.092Z,8.67
2018-04-14T08:14:31.063Z,7.30
2018-04-14T08:16:57.064Z,8.10
2018-04-14T08:19:23.494Z,7.85
2018-04-14T08:21:50.229Z,7.70
2018-04-14T08:24:16.204Z,7.75
2018-04-14T08:26:42.297Z,8.50
2018-04-14T08:29:09.996Z,6.62
2018-04-14T08:31:36.851Z,8.15
2018-04-14T08:34:03.628Z,7.65
2018-04-14T08:36:29.882Z,7.40
2018-04-14T08:38:55.966Z,5.97
2018-04-14T08:41:22.018Z,7.20
2018-04-14T08:43:48.720Z,7.57
2018-04-14T08:46:14.683Z,7.45
2018-04-14T08:48:42.168Z,6.72
2018-04-14T08:51:08.187Z,6.72
2018-04-14T08:53:34.223Z,6.15
2018-04-14T08:56:00.251Z,5.30
2018-04-14T08:58:26.206Z,5.07
2018-04-14T09:00:52.163Z,5.68
2018-04-14T09:03:18.916Z,6.45
2018-04-14T09:05:45.615Z,5.70
2018-04-14T09:08:11.592Z,5.75
2018-04-14T09:10:38.607Z,6.00
2018-04-14T09:13:04.740Z,6.05
2018-04-14T09:15:30.712Z,6.45
2018-04-14T09:17:56.729Z,5.65
2018-04-14T09:20:22.703Z,5.80
2018-04-14T09:22:49.410Z,5.50
2018-04-14T09:25:15.578Z,5.30
2018-04-14T09:27:41.543Z,4.53
2018-04-14T09:30:07.614Z,5.10
2018-04-14T09:32:33.655Z,4.53
2018-04-14T09:34:59.625Z,5.07
2018-04-14T09:37:25.638Z,5.60
2018-04-14T09:39:51.698Z,5.10
2018-04-14T09:42:17.680Z,4.80
2018-04-14T09:44:43.651Z,4.87
2018-04-14T09:47:09.801Z,5.50
2018-04-14T09:49:35.796Z,6.27
2018-04-14T09:52:01.865Z,5.43
2018-04-14T09:54:27.867Z,5.50
2018-04-14T09:56:53.825Z,5.47
2018-04-14T09:59:19.793Z,5.40
2018-04-14T10:01:50.546Z,5.23
2018-04-14T10:04:17.275Z,5.57
2018-04-14T10:06:43.222Z,6.30
2018-04-14T10:09:09.219Z,6.27
2018-04-14T10:11:35.252Z,6.83
2018-04-14T10:14:02.427Z,6.57
2018-04-14T10:16:28.455Z,7.40
2018-04-14T10:18:54.422Z,7.50
2018-04-14T10:21:20.379Z,7.43
2018-04-14T10:23:47.090Z,8.60
2018-04-14T10:26:13.051Z,8.87
2018-04-14T10:28:39.024Z,8.80
2018-04-14T10:31:05.022Z,9.77
2018-04-14T10:33:30.996Z,9.30
2018-04-14T10:35:56.954Z,9.07
2018-04-14T10:38:22.965Z,9.63
2018-04-14T10:40:48.926Z,10.27
2018-04-14T10:43:14.886Z,9.00
2018-04-14T10:45:40.913Z,8.70
2018-04-14T10:48:07.827Z,9.20
2018-04-14T10:50:33.844Z,8.87
2018-04-14T10:52:59.947Z,7.90
2018-04-14T10:55:25.927Z,7.53
2018-04-14T10:57:52.652Z,7.10
2018-04-14T11:00:18.655Z,7.20
2018-04-14T11:02:44.618Z,7.30
2018-04-14T11:05:10.588Z,6.23
2018-04-14T11:07:36.597Z,5.60
2018-04-14T11:10:02.677Z,5.83
2018-04-14T11:12:28.638Z,5.97
2018-04-14T11:14:54.790Z,5.67
2018-04-14T11:17:20.749Z,5.13
2018-04-14T11:19:46.744Z,6.83
2018-04-14T11:22:12.730Z,6.60
2018-04-14T11:24:39.436Z,5.60
2018-04-14T11:27:05.451Z,4.73
2018-04-14T11:29:31.483Z,6.20
2018-04-14T11:31:57.452Z,6.43
2018-04-14T11:34:23.417Z,6.20
2018-04-14T11:36:49.407Z,6.23
2018-04-14T11:39:15.367Z,6.23
2018-04-14T11:41:41.329Z,4.90
2018-04-14T11:44:08.328Z,5.20
2018-04-14T11:46:34.344Z,5.13
2018-04-14T11:49:00.298Z,4.70
2018-04-14T11:51:26.289Z,4.90
2018-04-14T11:53:53.000Z,4.63
2018-04-14T11:56:18.964Z,5.20
2018-04-14T11:58:44.946Z,5.20
2018-04-14T12:01:10.906Z,5.97
2018-04-14T12:03:36.942Z,6.20
2018-04-14T12:06:03.231Z,6.00
2018-04-14T12:08:29.946Z,6.53
2018-04-14T12:10:55.940Z,7.50
2018-04-14T12:13:21.923Z,6.37
2018-04-14T12:15:47.939Z,6.23
2018-04-14T12:18:13.914Z,6.70
2018-04-14T12:20:39.964Z,6.17
2018-04-14T12:23:06.716Z,5.67
2018-04-14T12:25:32.753Z,5.80
2018-04-14T12:27:59.500Z,6.27
2018-04-14T12:30:25.462Z,6.63
2018-04-14T12:32:51.432Z,6.70
2018-04-14T12:35:17.602Z,5.87
2018-04-14T12:37:43.572Z,5.57
2018-04-14T12:40:09.563Z,5.80
2018-04-14T12:42:35.614Z,5.63
2018-04-14T12:45:01.645Z,6.60
2018-04-14T12:47:28.527Z,5.10
2018-04-14T12:49:55.242Z,4.90
2018-04-14T12:52:21.205Z,5.57
2018-04-14T12:54:47.904Z,5.20
2018-04-14T12:57:13.886Z,5.60
2018-04-14T12:59:39.976Z,5.70
2018-04-14T13:02:05.962Z,4.60
2018-04-14T13:04:32.200Z,5.30
2018-04-14T13:06:58.172Z,5.43
2018-04-14T13:09:24.126Z,4.70
2018-04-14T13:11:50.111Z,5.20
2018-04-14T13:14:16.083Z,4.70
2018-04-14T13:16:42.055Z,5.17
2018-04-14T13:19:08.569Z,5.03
2018-04-14T13:21:34.511Z,5.10
2018-04-14T13:24:00.473Z,4.67
2018-04-14T13:26:26.614Z,4.60
2018-04-14T13:28:52.616Z,4.37
2018-04-14T13:31:18.575Z,5.07
2018-04-14T13:33:44.540Z,4.77
2018-04-14T13:36:10.495Z,4.53
2018-04-14T13:38:37.240Z,4.30
2018-04-14T13:41:04.120Z,3.83
2018-04-14T13:43:30.087Z,3.80
2018-04-14T13:45:56.053Z,4.40
2018-04-14T13:48:22.091Z,3.73
2018-04-14T13:50:48.050Z,3.73
2018-04-14T13:53:14.767Z,3.83
2018-04-14T13:55:40.760Z,3.80
2018-04-14T13:58:06.732Z,3.53
2018-04-14T14:00:32.780Z,3.80
2018-04-14T14:02:58.759Z,3.03
2018-04-14T14:05:24.705Z,3.10
2018-04-14T14:07:50.660Z,2.73
2018-04-14T14:10:16.806Z,3.20
2018-04-14T14:12:42.763Z,2.90
2018-04-14T14:15:08.723Z,2.93
2018-04-14T14:17:34.811Z,2.93
2018-04-14T14:20:00.770Z,2.60
2018-04-14T14:22:26.731Z,3.10
2018-04-14T14:24:53.451Z,3.57
2018-04-14T14:27:19.404Z,2.93
2018-04-14T14:29:45.352Z,2.83
2018-04-14T14:32:12.072Z,2.40
2018-04-14T14:34:38.082Z,2.90
2018-04-14T14:37:04.083Z,2.93
2018-04-14T14:39:30.084Z,2.97
2018-04-14T14:41:56.045Z,3.60
2018-04-14T14:44:22.742Z,3.23
2018-04-14T14:46:48.757Z,2.60
2018-04-14T14:49:14.722Z,3.40
2018-04-14T14:51:40.685Z,2.43
2018-04-14T14:54:07.901Z,2.50
2018-04-14T14:56:33.894Z,1.90
2018-04-14T14:59:00.600Z,3.00
2018-04-14T15:01:26.606Z,2.10
2018-04-14T15:03:52.579Z,2.10
2018-04-14T15:06:18.576Z,1.57
2018-04-14T15:08:44.602Z,1.77
2018-04-14T15:11:10.587Z,2.07
2018-04-14T15:13:36.629Z,1.80
2018-04-14T15:16:02.820Z,1.40
2018-04-14T15:18:28.798Z,1.63
2018-04-14T15:20:54.867Z,1.90
2018-04-14T15:23:21.608Z,1.83
2018-04-14T15:25:47.596Z,1.60
2018-04-14T15:28:13.580Z,1.63
2018-04-14T15:30:39.585Z,2.93
2018-04-14T15:33:05.616Z,3.50
2018-04-14T15:35:31.594Z,2.83
2018-04-14T15:37:58.341Z,4.40
2018-04-14T15:40:24.309Z,3.77
2018-04-14T15:42:51.012Z,4.90
2018-04-14T15:45:17.048Z,3.43
2018-04-14T15:47:43.038Z,2.50
2018-04-14T15:50:09.027Z,2.77
2018-04-14T15:52:35.202Z,3.30
2018-04-14T15:55:01.179Z,6.27
2018-04-14T15:57:27.157Z,6.63
2018-04-14T15:59:53.130Z,6.00
2018-04-14T16:02:19.115Z,4.23
2018-04-14T16:04:45.063Z,2.20
2018-04-14T16:07:12.728Z,2.00
2018-04-14T16:09:38.791Z,2.20
2018-04-14T16:12:05.570Z,3.30
2018-04-14T16:14:31.546Z,2.10
2018-04-14T16:16:57.523Z,1.90
2018-04-14T16:19:24.236Z,2.03
2018-04-14T16:21:50.323Z,2.20
2018-04-14T16:24:16.282Z,2.77
2018-04-14T16:26:42.250Z,3.03
2018-04-14T16:29:08.239Z,5.77
2018-04-14T16:31:34.225Z,7.10
2018-04-14T16:34:00.183Z,4.33
2018-04-14T16:36:26.895Z,3.73
2018-04-14T16:38:52.865Z,3.13
2018-04-14T16:41:19.554Z,1.90
2018-04-14T16:43:45.572Z,1.20
2018-04-14T16:46:11.533Z,1.40
2018-04-14T16:48:37.518Z,1.40
2018-04-14T16:51:04.458Z,2.53
2018-04-14T16:56:21.062Z,1.70
2018-04-14T16:58:47.259Z,1.80
2018-04-14T17:01:13.256Z,1.90
2018-04-14T17:03:39.959Z,1.70
2018-04-14T17:06:06.739Z,2.10
2018-04-14T17:08:32.865Z,2.03
2018-04-14T17:10:58.879Z,1.97
2018-04-14T17:13:24.864Z,2.00
2018-04-14T17:15:50.828Z,2.27
2018-04-14T17:18:16.943Z,4.40
2018-04-14T17:20:42.910Z,3.20
2018-04-14T17:23:08.920Z,7.57
2018-04-14T17:25:34.989Z,7.23
2018-04-14T17:28:01.744Z,7.30
2018-04-14T17:30:27.750Z,8.07
2018-04-14T17:32:53.746Z,8.53
2018-04-14T17:35:20.457Z,8.57
2018-04-14T17:37:46.420Z,7.40
2018-04-14T17:40:13.872Z,7.57
2018-04-14T17:42:39.864Z,7.10
2018-04-14T17:45:05.871Z,6.43
2018-04-14T17:47:31.913Z,7.20
2018-04-14T17:49:57.888Z,7.90
2018-04-14T17:52:23.861Z,10.93
2018-04-14T17:54:49.830Z,10.20
2018-04-14T17:57:15.803Z,7.63
2018-04-14T17:59:41.792Z,7.10
2018-04-14T18:02:07.887Z,7.97
2018-04-14T18:04:33.926Z,7.33
2018-04-14T18:06:59.939Z,7.60
2018-04-14T18:09:26.207Z,3.70
2018-04-14T18:11:52.168Z,4.93
2018-04-14T18:14:18.859Z,4.80
2018-04-14T18:16:45.027Z,4.30
2018-04-14T18:19:11.000Z,4.50
2018-04-14T18:21:37.706Z,3.40
2018-04-14T18:24:03.739Z,2.73
2018-04-14T18:26:29.730Z,3.10
2018-04-14T18:28:55.712Z,3.60
2018-04-14T18:31:21.744Z,3.40
2018-04-14T18:33:48.408Z,2.53
2018-04-14T18:36:14.374Z,3.77
2018-04-14T18:38:41.095Z,4.23
2018-04-14T18:41:07.085Z,3.47
2018-04-14T18:43:33.109Z,2.53
2018-04-14T18:45:59.136Z,2.67
2018-04-14T18:48:25.851Z,2.50
2018-04-14T18:50:51.813Z,2.70
2018-04-14T18:53:18.589Z,2.13
2018-04-14T18:55:44.548Z,2.50
2018-04-14T18:58:10.518Z,2.03
2018-04-14T19:00:36.526Z,2.03
2018-04-14T19:03:02.523Z,2.40
2018-04-14T19:05:29.244Z,2.70
2018-04-14T19:07:55.219Z,2.83
2018-04-14T19:10:21.236Z,2.17
2018-04-14T19:12:47.158Z,2.20
2018-04-14T19:15:13.152Z,1.80
2018-04-14T19:17:39.150Z,1.87
2018-04-14T19:20:05.922Z,1.87
2018-04-14T19:22:31.960Z,2.50
2018-04-14T19:24:57.933Z,2.10
2018-04-14T19:27:23.903Z,2.20
2018-04-14T19:29:50.652Z,1.97
2018-04-14T19:32:16.677Z,2.50
2018-04-14T19:34:42.636Z,2.07
2018-04-14T19:37:09.364Z,1.90
2018-04-14T19:39:35.378Z,2.70
2018-04-14T19:42:01.344Z,2.10
2018-04-14T19:44:28.493Z,1.77
2018-04-14T19:46:54.504Z,1.63
2018-04-14T19:49:20.471Z,1.60
2018-04-14T19:51:46.503Z,1.70
2018-04-14T19:54:12.894Z,1.83
2018-04-14T19:56:39.928Z,1.83
2018-04-14T19:59:06.007Z,2.40
2018-04-14T20:01:32.283Z,2.67
2018-04-14T20:03:58.280Z,2.60
2018-04-14T20:06:24.283Z,2.60
2018-04-14T20:08:50.987Z,2.63
2018-04-14T20:11:24.044Z,2.97
2018-04-14T20:13:50.738Z,2.87
2018-04-14T20:16:16.695Z,3.20
2018-04-14T20:18:42.671Z,2.37
2018-04-14T20:21:09.513Z,2.30
2018-04-14T20:23:36.264Z,2.57
2018-04-14T20:26:03.061Z,2.43
2018-04-14T20:28:29.037Z,1.80
2018-04-14T20:30:55.012Z,2.07
2018-04-14T20:33:21.033Z,2.20
2018-04-14T20:35:47.769Z,2.47
2018-04-14T20:38:13.735Z,2.33
2018-04-14T20:40:40.534Z,1.97
2018-04-14T20:43:06.567Z,2.20
2018-04-14T20:45:32.601Z,2.47
2018-04-14T20:47:58.616Z,3.10
2018-04-14T20:50:24.588Z,2.90
2018-04-14T20:52:50.571Z,2.47
2018-04-14T20:55:16.579Z,2.83
2018-04-14T20:57:42.542Z,2.50
2018-04-14T21:00:08.518Z,2.97
2018-04-14T21:02:34.583Z,2.33
2018-04-14T21:05:00.547Z,2.50
2018-04-14T21:07:26.521Z,2.33
2018-04-14T21:09:52.532Z,2.47
2018-04-14T21:12:18.508Z,2.03
2018-04-14T21:14:44.480Z,2.20
2018-04-14T21:17:11.227Z,2.60
2018-04-14T21:19:37.954Z,2.47
2018-04-14T21:22:03.937Z,2.30
2018-04-14T21:24:29.986Z,2.30
2018-04-14T21:26:55.964Z,2.43
2018-04-14T21:29:21.922Z,2.27
2018-04-14T21:31:48.842Z,1.83
2018-04-14T21:34:14.800Z,2.20
2018-04-14T21:36:40.838Z,1.67
2018-04-14T21:39:06.846Z,2.00
2018-04-14T21:41:32.865Z,1.73
2018-04-14T21:43:58.840Z,2.10
2018-04-14T21:46:24.832Z,1.73
2018-04-14T21:48:50.812Z,2.00
2018-04-14T21:51:16.795Z,2.40
2018-04-14T21:53:42.816Z,2.37
2018-04-14T21:56:08.807Z,2.60
2018-04-14T21:58:34.849Z,1.73
2018-04-14T22:01:00.990Z,2.03
2018-04-14T22:03:26.960Z,2.47
2018-04-14T22:05:53.663Z,2.10
2018-04-14T22:08:19.656Z,2.00
2018-04-14T22:10:45.631Z,2.07
2018-04-14T22:13:11.589Z,2.10
2018-04-14T22:15:37.640Z,1.90
2018-04-14T22:18:03.687Z,2.13
2018-04-14T22:20:29.667Z,1.80
2018-04-14T22:22:55.660Z,3.00
2018-04-14T22:25:22.389Z,2.20
2018-04-14T22:27:48.353Z,2.00
2018-04-14T22:30:15.089Z,2.10
2018-04-14T22:32:41.043Z,1.57
2018-04-14T22:35:07.786Z,1.80
2018-04-14T22:37:34.540Z,1.80
2018-04-14T22:40:01.248Z,1.40
2018-04-14T22:42:27.211Z,1.70
2018-04-14T22:44:53.184Z,2.10
2018-04-14T22:47:19.168Z,1.93
2018-04-14T22:49:45.155Z,1.57
2018-04-14T22:52:11.348Z,1.80
2018-04-14T22:54:37.694Z,2.00
2018-04-14T22:57:03.804Z,1.60
2018-04-14T22:59:29.816Z,1.90
2018-04-14T23:01:55.793Z,1.40
2018-04-14T23:04:21.766Z,1.70
2018-04-14T23:06:48.483Z,1.23
2018-04-14T23:09:14.464Z,1.00
2018-04-14T23:11:40.455Z,1.40
2018-04-14T23:14:07.127Z,1.17
2018-04-14T23:16:33.105Z,1.53
2018-04-14T23:18:59.075Z,1.40
2018-04-14T23:21:25.213Z,1.13
2018-04-14T23:23:51.176Z,1.40
2018-04-14T23:26:17.892Z,1.30
2018-04-14T23:28:44.049Z,1.80
2018-04-14T23:31:10.020Z,1.87
2018-04-14T23:33:36.007Z,1.30
2018-04-14T23:36:02.170Z,1.40
2018-04-14T23:38:28.167Z,1.43
2018-04-14T23:40:54.123Z,1.57
2018-04-14T23:43:20.246Z,1.40
2018-04-14T23:45:46.198Z,1.27
2018-04-14T23:48:12.154Z,1.20
2018-04-14T23:50:38.292Z,1.30
2018-04-14T23:53:04.271Z,1.50
2018-04-14T23:55:30.231Z,1.70
2018-04-14T23:57:56.247Z,1.57
